sensor_id;sensor_type;location;lat;lon;timestamp;P1;durP1;ratioP1;P2;durP2;ratioP2
1026;SDS011;502;48.746;9.214;2023-12-29T00:02:06;2.60;;;2.30;;
1026;SDS011;502;48.746;9.214;2023-12-29T00:04:32;2.60;;;2.17;;
1026;SDS011;502;48.746;9.214;2023-12-29T00:07:00;3.47;;;2.33;;
1026;SDS011;502;48.746;9.214;2023-12-29T00:09:27;2.60;;;2.07;;
1026;SDS011;502;48.746;9.214;2023-12-29T00:11:54;3.37;;;2.87;;
1026;SDS011;502;48.746;9.214;2023-12-29T00:14:20;3.10;;;2.00;;
1026;SDS011;502;48.746;9.214;2023-12-29T00:16:47;2.50;;;2.13;;
1026;SDS011;502;48.746;9.214;2023-12-29T00:19:13;3.10;;;2.60;;
1026;SDS011;502;48.746;9.214;2023-12-29T00:21:40;3.00;;;2.17;;
1026;SDS011;502;48.746;9.214;2023-12-29T00:24:08;3.87;;;2.70;;
1026;SDS011;502;48.746;9.214;2023-12-29T00:26:35;2.63;;;2.20;;
1026;SDS011;502;48.746;9.214;2023-12-29T00:29:02;3.53;;;2.10;;
1026;SDS011;502;48.746;9.214;2023-12-29T00:31:31;3.37;;;2.30;;
1026;SDS011;502;48.746;9.214;2023-12-29T00:33:58;3.27;;;2.53;;
1026;SDS011;502;48.746;9.214;2023-12-29T00:36:25;3.53;;;2.67;;
1026;SDS011;502;48.746;9.214;2023-12-29T00:38:51;2.67;;;2.40;;
1026;SDS011;502;48.746;9.214;2023-12-29T00:41:19;4.17;;;2.70;;
1026;SDS011;502;48.746;9.214;2023-12-29T00:43:46;3.10;;;2.30;;
1026;SDS011;502;48.746;9.214;2023-12-29T00:46:14;3.50;;;2.40;;
1026;SDS011;502;48.746;9.214;2023-12-29T00:48:40;2.90;;;2.50;;
1026;SDS011;502;48.746;9.214;2023-12-29T00:51:07;2.60;;;2.30;;
1026;SDS011;502;48.746;9.214;2023-12-29T00:53:35;3.17;;;2.50;;
1026;SDS011;502;48.746;9.214;2023-12-29T00:56:02;3.27;;;2.97;;
1026;SDS011;502;48.746;9.214;2023-12-29T00:58:30;4.47;;;2.97;;
1026;SDS011;502;48.746;9.214;2023-12-29T01:00:57;3.67;;;3.00;;
1026;SDS011;502;48.746;9.214;2023-12-29T01:03:23;6.60;;;3.00;;
1026;SDS011;502;48.746;9.214;2023-12-29T01:05:49;4.70;;;2.43;;
1026;SDS011;502;48.746;9.214;2023-12-29T01:08:16;3.63;;;2.50;;
1026;SDS011;502;48.746;9.214;2023-12-29T01:10:43;3.90;;;2.93;;
1026;SDS011;502;48.746;9.214;2023-12-29T01:13:09;3.10;;;2.80;;
1026;SDS011;502;48.746;9.214;2023-12-29T01:15:38;3.57;;;3.13;;
1026;SDS011;502;48.746;9.214;2023-12-29T01:18:09;3.03;;;2.50;;
1026;SDS011;502;48.746;9.214;2023-12-29T01:20:35;3.80;;;2.73;;
1026;SDS011;502;48.746;9.214;2023-12-29T01:23:04;3.47;;;2.60;;
1026;SDS011;502;48.746;9.214;2023-12-29T01:25:31;4.27;;;2.50;;
1026;SDS011;502;48.746;9.214;2023-12-29T01:27:57;3.43;;;2.90;;
1026;SDS011;502;48.746;9.214;2023-12-29T01:30:24;3.47;;;2.93;;
1026;SDS011;502;48.746;9.214;2023-12-29T01:32:51;4.40;;;3.00;;
1026;SDS011;502;48.746;9.214;2023-12-29T01:35:18;3.10;;;2.47;;
1026;SDS011;502;48.746;9.214;2023-12-29T01:37:45;3.50;;;3.00;;
1026;SDS011;502;48.746;9.214;2023-12-29T01:40:11;3.10;;;2.63;;
1026;SDS011;502;48.746;9.214;2023-12-29T01:42:38;4.47;;;2.90;;
1026;SDS011;502;48.746;9.214;2023-12-29T01:45:05;4.63;;;3.00;;
1026;SDS011;502;48.746;9.214;2023-12-29T01:47:32;4.00;;;2.90;;
1026;SDS011;502;48.746;9.214;2023-12-29T01:50:00;4.23;;;2.83;;
1026;SDS011;502;48.746;9.214;2023-12-29T01:52:27;4.00;;;3.33;;
1026;SDS011;502;48.746;9.214;2023-12-29T01:54:53;3.10;;;2.57;;
1026;SDS011;502;48.746;9.214;2023-12-29T01:57:21;6.07;;;3.60;;
1026;SDS011;502;48.746;9.214;2023-12-29T01:59:46;3.10;;;2.80;;
1026;SDS011;502;48.746;9.214;2023-12-29T02:02:14;3.53;;;3.10;;
1026;SDS011;502;48.746;9.214;2023-12-29T02:04:41;3.17;;;2.87;;
1026;SDS011;502;48.746;9.214;2023-12-29T02:07:09;4.80;;;3.30;;
1026;SDS011;502;48.746;9.214;2023-12-29T02:09:36;4.07;;;3.27;;
1026;SDS011;502;48.746;9.214;2023-12-29T02:12:03;5.70;;;3.43;;
1026;SDS011;502;48.746;9.214;2023-12-29T02:14:30;5.00;;;3.10;;
1026;SDS011;502;48.746;9.214;2023-12-29T02:16:58;3.40;;;2.70;;
1026;SDS011;502;48.746;9.214;2023-12-29T02:19:34;3.73;;;3.37;;
1026;SDS011;502;48.746;9.214;2023-12-29T02:22:04;6.70;;;3.70;;
1026;SDS011;502;48.746;9.214;2023-12-29T02:24:33;4.50;;;3.50;;
1026;SDS011;502;48.746;9.214;2023-12-29T02:27:02;4.00;;;3.23;;
1026;SDS011;502;48.746;9.214;2023-12-29T02:29:34;4.50;;;3.40;;
1026;SDS011;502;48.746;9.214;2023-12-29T02:32:01;3.97;;;3.57;;
1026;SDS011;502;48.746;9.214;2023-12-29T02:34:30;6.20;;;3.60;;
1026;SDS011;502;48.746;9.214;2023-12-29T02:36:58;5.50;;;3.47;;
1026;SDS011;502;48.746;9.214;2023-12-29T02:39:25;4.00;;;3.60;;
1026;SDS011;502;48.746;9.214;2023-12-29T02:41:51;4.53;;;3.50;;
1026;SDS011;502;48.746;9.214;2023-12-29T02:44:19;4.40;;;3.73;;
1026;SDS011;502;48.746;9.214;2023-12-29T02:46:45;3.87;;;3.47;;
1026;SDS011;502;48.746;9.214;2023-12-29T02:49:12;3.77;;;3.27;;
1026;SDS011;502;48.746;9.214;2023-12-29T02:51:39;3.90;;;3.37;;
1026;SDS011;502;48.746;9.214;2023-12-29T02:54:06;6.00;;;3.97;;
1026;SDS011;502;48.746;9.214;2023-12-29T02:56:32;4.43;;;3.40;;
1026;SDS011;502;48.746;9.214;2023-12-29T02:58:59;4.57;;;3.80;;
1026;SDS011;502;48.746;9.214;2023-12-29T03:01:27;4.50;;;3.30;;
1026;SDS011;502;48.746;9.214;2023-12-29T03:03:54;4.60;;;3.80;;
1026;SDS011;502;48.746;9.214;2023-12-29T03:06:21;4.50;;;3.80;;
1026;SDS011;502;48.746;9.214;2023-12-29T03:08:48;6.20;;;4.53;;
1026;SDS011;502;48.746;9.214;2023-12-29T03:11:14;4.70;;;3.50;;
1026;SDS011;502;48.746;9.214;2023-12-29T03:13:41;4.33;;;3.73;;
1026;SDS011;502;48.746;9.214;2023-12-29T03:16:07;6.00;;;4.03;;
1026;SDS011;502;48.746;9.214;2023-12-29T03:18:35;3.63;;;3.20;;
1026;SDS011;502;48.746;9.214;2023-12-29T03:21:04;4.10;;;3.70;;
1026;SDS011;502;48.746;9.214;2023-12-29T03:23:32;4.20;;;3.53;;
1026;SDS011;502;48.746;9.214;2023-12-29T03:25:59;4.03;;;3.47;;
1026;SDS011;502;48.746;9.214;2023-12-29T03:28:25;4.67;;;4.10;;
1026;SDS011;502;48.746;9.214;2023-12-29T03:30:52;4.63;;;3.70;;
1026;SDS011;502;48.746;9.214;2023-12-29T03:33:18;4.10;;;3.70;;
1026;SDS011;502;48.746;9.214;2023-12-29T03:35:46;4.40;;;4.00;;
1026;SDS011;502;48.746;9.214;2023-12-29T03:38:13;4.47;;;4.07;;
1026;SDS011;502;48.746;9.214;2023-12-29T03:40:40;5.27;;;3.77;;
1026;SDS011;502;48.746;9.214;2023-12-29T03:43:07;4.17;;;3.70;;
1026;SDS011;502;48.746;9.214;2023-12-29T03:45:33;4.23;;;3.70;;
1026;SDS011;502;48.746;9.214;2023-12-29T03:48:00;4.50;;;3.80;;
1026;SDS011;502;48.746;9.214;2023-12-29T03:50:26;4.00;;;3.40;;
1026;SDS011;502;48.746;9.214;2023-12-29T03:52:54;4.30;;;3.60;;
1026;SDS011;502;48.746;9.214;2023-12-29T03:55:21;4.67;;;3.27;;
1026;SDS011;502;48.746;9.214;2023-12-29T03:57:47;3.63;;;3.20;;
1026;SDS011;502;48.746;9.214;2023-12-29T04:00:15;4.60;;;3.10;;
1026;SDS011;502;48.746;9.214;2023-12-29T04:02:42;4.47;;;3.60;;
1026;SDS011;502;48.746;9.214;2023-12-29T04:05:10;3.53;;;3.00;;
1026;SDS011;502;48.746;9.214;2023-12-29T04:07:38;4.30;;;3.40;;
1026;SDS011;502;48.746;9.214;2023-12-29T04:10:07;4.20;;;3.37;;
1026;SDS011;502;48.746;9.214;2023-12-29T04:12:34;3.63;;;3.07;;
1026;SDS011;502;48.746;9.214;2023-12-29T04:15:00;3.87;;;3.40;;
1026;SDS011;502;48.746;9.214;2023-12-29T04:17:27;3.23;;;2.57;;
1026;SDS011;502;48.746;9.214;2023-12-29T04:19:54;3.53;;;2.97;;
1026;SDS011;502;48.746;9.214;2023-12-29T04:22:21;6.47;;;3.90;;
1026;SDS011;502;48.746;9.214;2023-12-29T04:24:47;4.50;;;3.73;;
1026;SDS011;502;48.746;9.214;2023-12-29T04:27:15;4.33;;;3.53;;
1026;SDS011;502;48.746;9.214;2023-12-29T04:29:43;4.27;;;3.50;;
1026;SDS011;502;48.746;9.214;2023-12-29T04:32:10;3.13;;;2.83;;
1026;SDS011;502;48.746;9.214;2023-12-29T04:34:36;4.83;;;3.33;;
1026;SDS011;502;48.746;9.214;2023-12-29T04:37:03;3.00;;;2.67;;
1026;SDS011;502;48.746;9.214;2023-12-29T04:39:30;4.33;;;3.33;;
1026;SDS011;502;48.746;9.214;2023-12-29T04:41:57;4.33;;;3.20;;
1026;SDS011;502;48.746;9.214;2023-12-29T04:44:25;3.70;;;3.00;;
1026;SDS011;502;48.746;9.214;2023-12-29T04:46:51;4.87;;;4.23;;
1026;SDS011;502;48.746;9.214;2023-12-29T04:49:18;3.77;;;3.00;;
1026;SDS011;502;48.746;9.214;2023-12-29T04:51:44;4.00;;;3.30;;
1026;SDS011;502;48.746;9.214;2023-12-29T04:54:13;3.33;;;2.87;;
1026;SDS011;502;48.746;9.214;2023-12-29T04:56:40;4.50;;;3.50;;
1026;SDS011;502;48.746;9.214;2023-12-29T04:59:06;4.20;;;3.70;;
1026;SDS011;502;48.746;9.214;2023-12-29T05:01:34;3.70;;;3.40;;
1026;SDS011;502;48.746;9.214;2023-12-29T05:04:01;3.67;;;3.00;;
1026;SDS011;502;48.746;9.214;2023-12-29T05:06:27;4.50;;;3.40;;
1026;SDS011;502;48.746;9.214;2023-12-29T05:08:54;3.90;;;3.03;;
1026;SDS011;502;48.746;9.214;2023-12-29T05:11:20;5.50;;;3.87;;
1026;SDS011;502;48.746;9.214;2023-12-29T05:13:47;3.47;;;3.17;;
1026;SDS011;502;48.746;9.214;2023-12-29T05:16:13;4.47;;;3.53;;
1026;SDS011;502;48.746;9.214;2023-12-29T05:18:41;3.63;;;3.20;;
1026;SDS011;502;48.746;9.214;2023-12-29T05:21:13;6.63;;;3.40;;
1026;SDS011;502;48.746;9.214;2023-12-29T05:23:40;3.10;;;2.80;;
1026;SDS011;502;48.746;9.214;2023-12-29T05:26:07;4.80;;;3.03;;
1026;SDS011;502;48.746;9.214;2023-12-29T05:28:33;5.13;;;3.37;;
1026;SDS011;502;48.746;9.214;2023-12-29T05:31:00;3.87;;;3.20;;
1026;SDS011;502;48.746;9.214;2023-12-29T05:33:28;5.47;;;3.43;;
1026;SDS011;502;48.746;9.214;2023-12-29T05:35:56;3.60;;;3.13;;
1026;SDS011;502;48.746;9.214;2023-12-29T05:38:23;5.10;;;3.57;;
1026;SDS011;502;48.746;9.214;2023-12-29T05:40:49;4.57;;;3.23;;
1026;SDS011;502;48.746;9.214;2023-12-29T05:43:17;6.23;;;4.87;;
1026;SDS011;502;48.746;9.214;2023-12-29T05:45:44;3.40;;;3.07;;
1026;SDS011;502;48.746;9.214;2023-12-29T05:48:10;4.20;;;3.80;;
1026;SDS011;502;48.746;9.214;2023-12-29T05:50:37;6.80;;;3.97;;
1026;SDS011;502;48.746;9.214;2023-12-29T05:53:05;4.40;;;3.50;;
1026;SDS011;502;48.746;9.214;2023-12-29T05:55:32;5.10;;;3.80;;
1026;SDS011;502;48.746;9.214;2023-12-29T05:57:58;3.70;;;3.10;;
1026;SDS011;502;48.746;9.214;2023-12-29T06:00:25;3.77;;;3.10;;
1026;SDS011;502;48.746;9.214;2023-12-29T06:02:51;4.50;;;3.20;;
1026;SDS011;502;48.746;9.214;2023-12-29T06:05:18;3.90;;;3.13;;
1026;SDS011;502;48.746;9.214;2023-12-29T06:07:44;4.20;;;3.37;;
1026;SDS011;502;48.746;9.214;2023-12-29T06:10:12;4.27;;;3.20;;
1026;SDS011;502;48.746;9.214;2023-12-29T06:12:39;5.10;;;3.80;;
1026;SDS011;502;48.746;9.214;2023-12-29T06:15:05;4.93;;;3.43;;
1026;SDS011;502;48.746;9.214;2023-12-29T06:17:33;4.20;;;3.60;;
1026;SDS011;502;48.746;9.214;2023-12-29T06:20:00;3.73;;;3.10;;
1026;SDS011;502;48.746;9.214;2023-12-29T06:22:27;4.10;;;3.50;;
1026;SDS011;502;48.746;9.214;2023-12-29T06:24:53;4.80;;;3.40;;
1026;SDS011;502;48.746;9.214;2023-12-29T06:27:21;4.60;;;3.67;;
1026;SDS011;502;48.746;9.214;2023-12-29T06:29:48;4.50;;;3.23;;
1026;SDS011;502;48.746;9.214;2023-12-29T06:32:15;4.63;;;3.73;;
1026;SDS011;502;48.746;9.214;2023-12-29T06:34:43;4.60;;;3.50;;
1026;SDS011;502;48.746;9.214;2023-12-29T06:37:09;3.50;;;3.10;;
1026;SDS011;502;48.746;9.214;2023-12-29T06:39:36;3.50;;;3.10;;
1026;SDS011;502;48.746;9.214;2023-12-29T06:42:04;3.87;;;3.23;;
1026;SDS011;502;48.746;9.214;2023-12-29T06:44:32;3.00;;;2.70;;
1026;SDS011;502;48.746;9.214;2023-12-29T06:46:58;4.43;;;3.40;;
1026;SDS011;502;48.746;9.214;2023-12-29T06:49:25;3.93;;;3.30;;
1026;SDS011;502;48.746;9.214;2023-12-29T06:51:51;5.00;;;3.43;;
1026;SDS011;502;48.746;9.214;2023-12-29T06:54:18;4.30;;;3.63;;
1026;SDS011;502;48.746;9.214;2023-12-29T06:56:44;5.97;;;3.70;;
1026;SDS011;502;48.746;9.214;2023-12-29T06:59:11;4.13;;;3.60;;
1026;SDS011;502;48.746;9.214;2023-12-29T07:01:39;3.87;;;3.47;;
1026;SDS011;502;48.746;9.214;2023-12-29T07:04:06;4.90;;;3.13;;
1026;SDS011;502;48.746;9.214;2023-12-29T07:06:35;4.30;;;3.77;;
1026;SDS011;502;48.746;9.214;2023-12-29T07:09:01;3.17;;;2.67;;
1026;SDS011;502;48.746;9.214;2023-12-29T07:11:28;3.90;;;3.23;;
1026;SDS011;502;48.746;9.214;2023-12-29T07:13:55;3.47;;;2.57;;
1026;SDS011;502;48.746;9.214;2023-12-29T07:16:21;4.53;;;4.00;;
1026;SDS011;502;48.746;9.214;2023-12-29T07:18:49;3.40;;;2.80;;
1026;SDS011;502;48.746;9.214;2023-12-29T07:21:17;4.53;;;3.90;;
1026;SDS011;502;48.746;9.214;2023-12-29T07:23:43;3.50;;;3.10;;
1026;SDS011;502;48.746;9.214;2023-12-29T07:26:10;3.33;;;2.90;;
1026;SDS011;502;48.746;9.214;2023-12-29T07:28:36;4.50;;;3.43;;
1026;SDS011;502;48.746;9.214;2023-12-29T07:31:03;4.10;;;3.10;;
1026;SDS011;502;48.746;9.214;2023-12-29T07:33:30;4.37;;;3.67;;
1026;SDS011;502;48.746;9.214;2023-12-29T07:35:58;3.03;;;2.73;;
1026;SDS011;502;48.746;9.214;2023-12-29T07:38:26;3.87;;;3.10;;
1026;SDS011;502;48.746;9.214;2023-12-29T07:40:52;3.13;;;2.83;;
1026;SDS011;502;48.746;9.214;2023-12-29T07:43:19;3.20;;;2.70;;
1026;SDS011;502;48.746;9.214;2023-12-29T07:45:45;3.80;;;2.87;;
1026;SDS011;502;48.746;9.214;2023-12-29T07:48:12;4.20;;;2.97;;
1026;SDS011;502;48.746;9.214;2023-12-29T07:50:38;5.23;;;3.13;;
1026;SDS011;502;48.746;9.214;2023-12-29T07:53:07;3.80;;;2.30;;
1026;SDS011;502;48.746;9.214;2023-12-29T07:55:37;3.80;;;2.90;;
1026;SDS011;502;48.746;9.214;2023-12-29T07:58:03;4.70;;;3.20;;
1026;SDS011;502;48.746;9.214;2023-12-29T08:00:30;4.60;;;3.37;;
1026;SDS011;502;48.746;9.214;2023-12-29T08:02:56;4.43;;;2.47;;
1026;SDS011;502;48.746;9.214;2023-12-29T08:05:24;3.83;;;3.40;;
1026;SDS011;502;48.746;9.214;2023-12-29T08:07:51;5.00;;;2.60;;
1026;SDS011;502;48.746;9.214;2023-12-29T08:10:18;3.87;;;3.30;;
1026;SDS011;502;48.746;9.214;2023-12-29T08:12:45;3.80;;;3.00;;
1026;SDS011;502;48.746;9.214;2023-12-29T08:15:12;3.27;;;2.97;;
1026;SDS011;502;48.746;9.214;2023-12-29T08:17:38;3.80;;;3.23;;
1026;SDS011;502;48.746;9.214;2023-12-29T08:20:06;3.20;;;2.90;;
1026;SDS011;502;48.746;9.214;2023-12-29T08:22:33;3.50;;;2.60;;
1026;SDS011;502;48.746;9.214;2023-12-29T08:25:00;3.87;;;3.17;;
1026;SDS011;502;48.746;9.214;2023-12-29T08:27:27;3.17;;;2.43;;
1026;SDS011;502;48.746;9.214;2023-12-29T08:29:54;3.90;;;3.43;;
1026;SDS011;502;48.746;9.214;2023-12-29T08:32:21;3.80;;;3.23;;
1026;SDS011;502;48.746;9.214;2023-12-29T08:34:47;4.90;;;2.97;;
1026;SDS011;502;48.746;9.214;2023-12-29T08:37:14;3.63;;;3.13;;
1026;SDS011;502;48.746;9.214;2023-12-29T08:39:45;3.57;;;3.20;;
1026;SDS011;502;48.746;9.214;2023-12-29T08:42:11;3.40;;;3.10;;
1026;SDS011;502;48.746;9.214;2023-12-29T08:44:39;4.43;;;3.10;;
1026;SDS011;502;48.746;9.214;2023-12-29T08:47:06;3.43;;;3.13;;
1026;SDS011;502;48.746;9.214;2023-12-29T08:49:33;3.33;;;2.93;;
1026;SDS011;502;48.746;9.214;2023-12-29T08:51:59;4.07;;;2.90;;
1026;SDS011;502;48.746;9.214;2023-12-29T08:54:26;3.90;;;3.40;;
1026;SDS011;502;48.746;9.214;2023-12-29T08:56:53;4.70;;;3.27;;
1026;SDS011;502;48.746;9.214;2023-12-29T08:59:19;3.70;;;2.73;;
1026;SDS011;502;48.746;9.214;2023-12-29T09:01:47;3.23;;;2.93;;
1026;SDS011;502;48.746;9.214;2023-12-29T09:04:14;3.60;;;3.00;;
1026;SDS011;502;48.746;9.214;2023-12-29T09:06:40;3.20;;;2.73;;
1026;SDS011;502;48.746;9.214;2023-12-29T09:09:07;4.30;;;3.00;;
1026;SDS011;502;48.746;9.214;2023-12-29T09:11:37;3.30;;;2.60;;
1026;SDS011;502;48.746;9.214;2023-12-29T09:14:04;4.03;;;2.70;;
1026;SDS011;502;48.746;9.214;2023-12-29T09:16:31;3.03;;;2.73;;
1026;SDS011;502;48.746;9.214;2023-12-29T09:18:59;3.00;;;2.70;;
1026;SDS011;502;48.746;9.214;2023-12-29T09:21:25;3.57;;;2.30;;
1026;SDS011;502;48.746;9.214;2023-12-29T09:23:52;3.03;;;2.70;;
1026;SDS011;502;48.746;9.214;2023-12-29T09:26:18;3.00;;;2.60;;
1026;SDS011;502;48.746;9.214;2023-12-29T09:28:45;2.30;;;1.93;;
1026;SDS011;502;48.746;9.214;2023-12-29T09:31:12;2.77;;;2.13;;
1026;SDS011;502;48.746;9.214;2023-12-29T09:33:41;2.83;;;2.20;;
1026;SDS011;502;48.746;9.214;2023-12-29T09:36:09;2.90;;;2.30;;
1026;SDS011;502;48.746;9.214;2023-12-29T09:38:36;2.80;;;2.30;;
1026;SDS011;502;48.746;9.214;2023-12-29T09:41:04;3.53;;;2.83;;
1026;SDS011;502;48.746;9.214;2023-12-29T09:43:31;2.53;;;2.10;;
1026;SDS011;502;48.746;9.214;2023-12-29T09:45:58;3.03;;;2.30;;
1026;SDS011;502;48.746;9.214;2023-12-29T09:48:26;3.50;;;2.57;;
1026;SDS011;502;48.746;9.214;2023-12-29T09:50:53;2.93;;;2.63;;
1026;SDS011;502;48.746;9.214;2023-12-29T09:53:21;3.43;;;2.67;;
1026;SDS011;502;48.746;9.214;2023-12-29T09:55:51;2.43;;;2.00;;
1026;SDS011;502;48.746;9.214;2023-12-29T09:58:18;3.60;;;2.60;;
1026;SDS011;502;48.746;9.214;2023-12-29T10:00:46;4.50;;;2.20;;
1026;SDS011;502;48.746;9.214;2023-12-29T10:03:13;2.83;;;2.47;;
1026;SDS011;502;48.746;9.214;2023-12-29T10:05:42;3.37;;;2.73;;
1026;SDS011;502;48.746;9.214;2023-12-29T10:08:09;2.50;;;2.10;;
1026;SDS011;502;48.746;9.214;2023-12-29T10:10:37;3.43;;;2.50;;
1026;SDS011;502;48.746;9.214;2023-12-29T10:13:06;2.20;;;2.00;;
1026;SDS011;502;48.746;9.214;2023-12-29T10:15:34;3.73;;;2.30;;
1026;SDS011;502;48.746;9.214;2023-12-29T10:18:06;2.40;;;2.00;;
1026;SDS011;502;48.746;9.214;2023-12-29T10:20:38;2.60;;;2.40;;
1026;SDS011;502;48.746;9.214;2023-12-29T10:23:11;2.73;;;2.17;;
1026;SDS011;502;48.746;9.214;2023-12-29T10:25:40;2.60;;;1.97;;
1026;SDS011;502;48.746;9.214;2023-12-29T10:28:07;2.57;;;2.10;;
1026;SDS011;502;48.746;9.214;2023-12-29T10:30:34;2.33;;;2.00;;
1026;SDS011;502;48.746;9.214;2023-12-29T10:33:02;2.70;;;2.10;;
1026;SDS011;502;48.746;9.214;2023-12-29T10:35:29;2.30;;;1.90;;
1026;SDS011;502;48.746;9.214;2023-12-29T10:38:06;2.00;;;1.70;;
1026;SDS011;502;48.746;9.214;2023-12-29T10:40:34;2.27;;;1.70;;
1026;SDS011;502;48.746;9.214;2023-12-29T10:43:02;2.20;;;1.60;;
1026;SDS011;502;48.746;9.214;2023-12-29T10:45:32;1.80;;;1.40;;
1026;SDS011;502;48.746;9.214;2023-12-29T10:47:59;2.43;;;2.00;;
1026;SDS011;502;48.746;9.214;2023-12-29T10:50:26;2.97;;;1.97;;
1026;SDS011;502;48.746;9.214;2023-12-29T10:52:57;2.80;;;2.00;;
1026;SDS011;502;48.746;9.214;2023-12-29T10:55:36;2.50;;;2.10;;
1026;SDS011;502;48.746;9.214;2023-12-29T10:58:04;2.07;;;1.50;;
1026;SDS011;502;48.746;9.214;2023-12-29T11:00:31;2.23;;;2.03;;
1026;SDS011;502;48.746;9.214;2023-12-29T11:02:58;2.40;;;2.00;;
1026;SDS011;502;48.746;9.214;2023-12-29T11:05:26;1.90;;;1.70;;
1026;SDS011;502;48.746;9.214;2023-12-29T11:07:52;2.10;;;1.50;;
1026;SDS011;502;48.746;9.214;2023-12-29T11:10:20;2.20;;;1.80;;
1026;SDS011;502;48.746;9.214;2023-12-29T11:12:47;1.93;;;1.60;;
1026;SDS011;502;48.746;9.214;2023-12-29T11:15:15;2.40;;;1.80;;
1026;SDS011;502;48.746;9.214;2023-12-29T11:17:43;1.77;;;1.40;;
1026;SDS011;502;48.746;9.214;2023-12-29T11:20:14;3.73;;;2.00;;
1026;SDS011;502;48.746;9.214;2023-12-29T11:22:41;2.00;;;1.53;;
1026;SDS011;502;48.746;9.214;2023-12-29T11:25:08;2.40;;;1.83;;
1026;SDS011;502;48.746;9.214;2023-12-29T11:27:35;2.60;;;2.00;;
1026;SDS011;502;48.746;9.214;2023-12-29T11:30:02;2.10;;;1.70;;
1026;SDS011;502;48.746;9.214;2023-12-29T11:32:34;2.27;;;1.87;;
1026;SDS011;502;48.746;9.214;2023-12-29T11:35:11;2.03;;;1.70;;
1026;SDS011;502;48.746;9.214;2023-12-29T11:37:47;2.80;;;1.80;;
1026;SDS011;502;48.746;9.214;2023-12-29T11:40:19;2.23;;;1.53;;
1026;SDS011;502;48.746;9.214;2023-12-29T11:42:48;2.10;;;1.67;;
1026;SDS011;502;48.746;9.214;2023-12-29T11:45:25;2.30;;;1.70;;
1026;SDS011;502;48.746;9.214;2023-12-29T11:47:55;1.83;;;1.40;;
1026;SDS011;502;48.746;9.214;2023-12-29T11:50:29;2.43;;;1.63;;
1026;SDS011;502;48.746;9.214;2023-12-29T11:52:57;2.47;;;1.63;;
1026;SDS011;502;48.746;9.214;2023-12-29T11:55:29;2.00;;;1.43;;
1026;SDS011;502;48.746;9.214;2023-12-29T11:57:57;1.90;;;1.50;;
1026;SDS011;502;48.746;9.214;2023-12-29T12:00:40;2.23;;;1.70;;
1026;SDS011;502;48.746;9.214;2023-12-29T12:03:17;2.07;;;1.70;;
1026;SDS011;502;48.746;9.214;2023-12-29T12:05:47;2.07;;;1.60;;
1026;SDS011;502;48.746;9.214;2023-12-29T12:08:29;3.30;;;2.10;;
1026;SDS011;502;48.746;9.214;2023-12-29T12:10:57;2.03;;;1.57;;
1026;SDS011;502;48.746;9.214;2023-12-29T12:13:44;2.77;;;1.60;;
1026;SDS011;502;48.746;9.214;2023-12-29T12:19:12;2.00;;;1.67;;
1026;SDS011;502;48.746;9.214;2023-12-29T12:21:39;2.20;;;1.80;;
1026;SDS011;502;48.746;9.214;2023-12-29T12:24:06;3.33;;;1.70;;
1026;SDS011;502;48.746;9.214;2023-12-29T12:26:34;2.13;;;1.70;;
1026;SDS011;502;48.746;9.214;2023-12-29T12:29:00;2.10;;;1.57;;
1026;SDS011;502;48.746;9.214;2023-12-29T12:31:27;1.70;;;1.30;;
1026;SDS011;502;48.746;9.214;2023-12-29T12:33:54;2.23;;;1.63;;
1026;SDS011;502;48.746;9.214;2023-12-29T12:36:22;1.87;;;1.47;;
1026;SDS011;502;48.746;9.214;2023-12-29T12:38:50;1.90;;;1.50;;
1026;SDS011;502;48.746;9.214;2023-12-29T12:41:17;2.87;;;1.83;;
1026;SDS011;502;48.746;9.214;2023-12-29T12:43:45;2.60;;;1.70;;
1026;SDS011;502;48.746;9.214;2023-12-29T12:46:17;5.37;;;2.03;;
1026;SDS011;502;48.746;9.214;2023-12-29T12:48:44;2.73;;;1.57;;
1026;SDS011;502;48.746;9.214;2023-12-29T12:51:11;2.13;;;1.70;;
1026;SDS011;502;48.746;9.214;2023-12-29T12:53:40;1.87;;;1.50;;
1026;SDS011;502;48.746;9.214;2023-12-29T12:56:09;2.03;;;1.30;;
1026;SDS011;502;48.746;9.214;2023-12-29T12:58:36;1.70;;;1.40;;
1026;SDS011;502;48.746;9.214;2023-12-29T13:01:03;2.20;;;1.60;;
1026;SDS011;502;48.746;9.214;2023-12-29T13:03:30;2.83;;;1.40;;
1026;SDS011;502;48.746;9.214;2023-12-29T13:05:58;2.50;;;1.80;;
1026;SDS011;502;48.746;9.214;2023-12-29T13:08:25;1.70;;;1.40;;
1026;SDS011;502;48.746;9.214;2023-12-29T13:10:53;2.30;;;1.80;;
1026;SDS011;502;48.746;9.214;2023-12-29T13:13:20;1.83;;;1.40;;
1026;SDS011;502;48.746;9.214;2023-12-29T13:15:47;2.47;;;1.70;;
1026;SDS011;502;48.746;9.214;2023-12-29T13:18:14;2.37;;;1.80;;
1026;SDS011;502;48.746;9.214;2023-12-29T13:20:43;1.93;;;1.47;;
1026;SDS011;502;48.746;9.214;2023-12-29T13:23:10;2.10;;;1.57;;
1026;SDS011;502;48.746;9.214;2023-12-29T13:25:37;2.03;;;1.60;;
1026;SDS011;502;48.746;9.214;2023-12-29T13:28:07;2.00;;;1.67;;
1026;SDS011;502;48.746;9.214;2023-12-29T13:30:33;2.27;;;1.50;;
1026;SDS011;502;48.746;9.214;2023-12-29T13:33:02;2.03;;;1.57;;
1026;SDS011;502;48.746;9.214;2023-12-29T13:35:34;1.70;;;1.60;;
1026;SDS011;502;48.746;9.214;2023-12-29T13:38:05;1.80;;;1.30;;
1026;SDS011;502;48.746;9.214;2023-12-29T13:40:35;2.23;;;1.87;;
1026;SDS011;502;48.746;9.214;2023-12-29T13:43:07;2.67;;;1.87;;
1026;SDS011;502;48.746;9.214;2023-12-29T13:45:35;1.80;;;1.37;;
1026;SDS011;502;48.746;9.214;2023-12-29T13:48:03;3.80;;;2.10;;
1026;SDS011;502;48.746;9.214;2023-12-29T13:50:32;2.10;;;1.40;;
1026;SDS011;502;48.746;9.214;2023-12-29T13:52:58;2.30;;;2.10;;
1026;SDS011;502;48.746;9.214;2023-12-29T13:55:25;2.30;;;1.40;;
1026;SDS011;502;48.746;9.214;2023-12-29T13:57:52;2.17;;;1.67;;
1026;SDS011;502;48.746;9.214;2023-12-29T14:00:21;1.67;;;1.47;;
1026;SDS011;502;48.746;9.214;2023-12-29T14:02:57;1.63;;;1.43;;
1026;SDS011;502;48.746;9.214;2023-12-29T14:05:27;2.37;;;1.83;;
1026;SDS011;502;48.746;9.214;2023-12-29T14:07:55;1.97;;;1.37;;
1026;SDS011;502;48.746;9.214;2023-12-29T14:10:28;2.40;;;1.63;;
1026;SDS011;502;48.746;9.214;2023-12-29T14:12:55;3.27;;;1.63;;
1026;SDS011;502;48.746;9.214;2023-12-29T14:15:34;2.30;;;1.57;;
1026;SDS011;502;48.746;9.214;2023-12-29T14:18:03;2.30;;;1.70;;
1026;SDS011;502;48.746;9.214;2023-12-29T14:20:32;1.90;;;1.70;;
1026;SDS011;502;48.746;9.214;2023-12-29T14:23:01;3.00;;;1.67;;
1026;SDS011;502;48.746;9.214;2023-12-29T14:25:28;2.40;;;1.70;;
1026;SDS011;502;48.746;9.214;2023-12-29T14:27:55;1.73;;;1.50;;
1026;SDS011;502;48.746;9.214;2023-12-29T14:30:22;2.23;;;1.63;;
1026;SDS011;502;48.746;9.214;2023-12-29T14:32:51;2.13;;;1.90;;
1026;SDS011;502;48.746;9.214;2023-12-29T14:35:17;1.97;;;1.73;;
1026;SDS011;502;48.746;9.214;2023-12-29T14:37:44;2.70;;;1.50;;
1026;SDS011;502;48.746;9.214;2023-12-29T14:40:10;2.10;;;1.70;;
1026;SDS011;502;48.746;9.214;2023-12-29T14:42:37;1.90;;;1.70;;
1026;SDS011;502;48.746;9.214;2023-12-29T14:45:06;1.80;;;1.20;;
1026;SDS011;502;48.746;9.214;2023-12-29T14:47:34;3.07;;;1.83;;
1026;SDS011;502;48.746;9.214;2023-12-29T14:50:02;2.23;;;1.57;;
1026;SDS011;502;48.746;9.214;2023-12-29T14:52:29;2.60;;;1.93;;
1026;SDS011;502;48.746;9.214;2023-12-29T14:54:55;2.00;;;1.80;;
1026;SDS011;502;48.746;9.214;2023-12-29T14:57:22;1.97;;;1.63;;
1026;SDS011;502;48.746;9.214;2023-12-29T14:59:48;2.17;;;1.60;;
1026;SDS011;502;48.746;9.214;2023-12-29T15:02:15;2.37;;;2.03;;
1026;SDS011;502;48.746;9.214;2023-12-29T15:04:42;2.03;;;1.63;;
1026;SDS011;502;48.746;9.214;2023-12-29T15:07:10;2.70;;;1.50;;
1026;SDS011;502;48.746;9.214;2023-12-29T15:09:36;2.10;;;1.70;;
1026;SDS011;502;48.746;9.214;2023-12-29T15:12:04;2.57;;;1.43;;
1026;SDS011;502;48.746;9.214;2023-12-29T15:14:32;2.80;;;1.60;;
1026;SDS011;502;48.746;9.214;2023-12-29T15:16:59;1.60;;;1.50;;
1026;SDS011;502;48.746;9.214;2023-12-29T15:19:25;1.70;;;1.50;;
1026;SDS011;502;48.746;9.214;2023-12-29T15:21:52;2.40;;;1.67;;
1026;SDS011;502;48.746;9.214;2023-12-29T15:24:20;2.23;;;1.83;;
1026;SDS011;502;48.746;9.214;2023-12-29T15:26:47;2.17;;;1.70;;
1026;SDS011;502;48.746;9.214;2023-12-29T15:29:13;2.50;;;2.00;;
1026;SDS011;502;48.746;9.214;2023-12-29T15:31:41;2.80;;;1.67;;
1026;SDS011;502;48.746;9.214;2023-12-29T15:34:08;1.80;;;1.50;;
1026;SDS011;502;48.746;9.214;2023-12-29T15:36:35;2.23;;;2.03;;